Time;durP1;ratioP1;P1;durP2;ratioP2;P2;SDS_P1;SDS_P2;PMS_P1;PMS_P2;Temp;Humidity;BMP_temperature;BMP_pressure;BME280_temperature;BME280_humidity;BME280_pressure;Samples;Min_cycle;Max_cycle;Signal;HPM_P1;HPM_P2
2022/01/26 00:07:00;;;;;;;65.97;28.42;;;3.30;99.90;;;;;;4990619;28;20109;-72
2022/01/26 00:09:26;;;;;;;75.50;30.55;;;3.30;99.90;;;;;;4989120;28;20041;-72
2022/01/26 00:11:52;;;;;;;65.95;28.48;;;3.30;99.90;;;;;;4981151;28;20490;-72
2022/01/26 00:14:18;;;;;;;69.32;29.88;;;3.30;99.90;;;;;;4972606;28;20037;-72
2022/01/26 00:16:44;;;;;;;71.00;30.73;;;3.30;99.90;;;;;;4987511;28;20036;-72
2022/01/26 00:19:16;;;;;;;64.32;27.92;;;3.30;99.90;;;;;;5004435;28;20045;-72
2022/01/26 00:21:52;;;;;;;69.55;28.83;;;3.20;99.90;;;;;;5004334;28;20033;-72
2022/01/26 00:29:30;;;;;;;70.93;29.67;;;3.20;99.90;;;;;;4987204;28;20046;-72
2022/01/26 00:33:06;;;;;;;69.95;29.05;;;3.20;99.90;;;;;;4988667;28;20038;-71
2022/01/26 00:40:50;;;;;;;71.72;28.98;;;3.20;99.90;;;;;;4993493;28;20057;-72
2022/01/26 00:43:24;;;;;;;66.15;29.35;;;3.20;99.90;;;;;;4990624;28;20104;-72
2022/01/26 00:45:55;;;;;;;64.63;27.95;;;3.20;99.90;;;;;;4993166;28;20038;-72
2022/01/26 00:48:21;;;;;;;68.30;27.55;;;3.10;99.90;;;;;;4994591;28;20084;-72
2022/01/26 00:50:51;;;;;;;68.68;29.13;;;3.90;99.90;;;;;;4988733;28;20041;-72
2022/01/26 00:53:25;;;;;;;70.30;27.33;;;3.10;99.90;;;;;;4987756;28;20097;-72
2022/01/26 00:55:51;;;;;;;70.65;28.23;;;3.10;99.90;;;;;;4989282;28;20045;-72
2022/01/26 00:58:16;;;;;;;74.75;31.00;;;3.10;99.90;;;;;;4990387;28;20448;-72
2022/01/26 01:00:42;;;;;;;73.68;30.10;;;3.30;99.90;;;;;;4936923;28;21272;-72
2022/01/26 01:03:23;;;;;;;72.10;27.55;;;3.00;99.90;;;;;;781371;28;10002230;-72
2022/01/26 01:05:55;;;;;;;66.78;29.13;;;3.00;99.90;;;;;;4471684;28;10000954;-72
2022/01/26 01:08:23;;;;;;;74.22;29.73;;;3.00;99.90;;;;;;4987776;28;20041;-72
2022/01/26 01:10:51;;;;;;;73.60;30.67;;;3.20;99.90;;;;;;4982765;28;20044;-72
2022/01/26 01:13:20;;;;;;;68.47;28.10;;;3.00;99.90;;;;;;4984973;28;20488;-72
2022/01/26 01:15:48;;;;;;;73.88;30.65;;;3.00;99.90;;;;;;4986531;28;20030;-72
2022/01/26 01:18:21;;;;;;;67.20;27.92;;;3.00;99.90;;;;;;4992881;28;20049;-72
2022/01/26 01:31:27;;;;;;;76.80;29.63;;;3.00;99.90;;;;;;4986929;28;20049;-72
2022/01/26 01:33:53;;;;;;;69.35;26.98;;;3.20;99.90;;;;;;4986733;28;20288;-72
2022/01/26 01:36:21;;;;;;;69.07;29.85;;;2.90;99.90;;;;;;4999886;28;20046;-72
2022/01/26 01:38:47;;;;;;;75.05;30.25;;;2.90;99.90;;;;;;4991158;28;20049;-72
2022/01/26 01:41:12;;;;;;;73.82;31.48;;;2.90;99.90;;;;;;4957414;28;20048;-72
2022/01/26 01:43:38;;;;;;;71.22;30.33;;;3.00;99.90;;;;;;4987275;28;21071;-72
2022/01/26 01:46:05;;;;;;;74.95;30.50;;;2.90;99.90;;;;;;4986337;28;20421;-72
2022/01/26 01:48:32;;;;;;;80.85;31.85;;;2.90;99.90;;;;;;4987465;28;20038;-72
2022/01/26 01:51:04;;;;;;;78.32;31.30;;;2.90;99.90;;;;;;4988461;28;20181;-72
2022/01/26 01:53:50;;;;;;;75.20;30.38;;;2.90;99.90;;;;;;5005322;28;20125;-72
2022/01/26 01:56:17;;;;;;;71.22;29.95;;;2.90;99.90;;;;;;4986989;28;20046;-72
2022/01/26 01:58:43;;;;;;;84.05;33.83;;;2.80;99.90;;;;;;5007356;28;20192;-72
2022/01/26 02:01:09;;;;;;;80.88;30.92;;;2.80;99.90;;;;;;4993216;28;20041;-72
2022/01/26 02:03:35;;;;;;;67.97;29.38;;;2.80;99.90;;;;;;4998374;28;20448;-72
2022/01/26 02:06:02;;;;;;;73.07;30.92;;;3.60;99.90;;;;;;4992826;28;20129;-72
2022/01/26 02:08:28;;;;;;;77.05;31.60;;;4.00;99.90;;;;;;4987772;28;20044;-71
2022/01/26 02:11:06;;;;;;;74.88;28.42;;;2.80;99.90;;;;;;4974356;28;20046;-71
2022/01/26 02:13:39;;;;;;;70.03;29.60;;;2.70;99.90;;;;;;4970229;28;20406;-71
2022/01/26 02:16:17;;;;;;;80.45;33.97;;;2.80;99.90;;;;;;4972916;28;20042;-71
2022/01/26 02:52:06;;;;;;;74.10;29.95;;;2.70;99.90;;;;;;4984008;28;20206;-71
2022/01/26 03:00:40;;;;;;;72.00;28.35;;;2.60;99.90;;;;;;4996999;28;20049;-71
2022/01/26 03:03:12;;;;;;;73.80;30.67;;;2.60;99.90;;;;;;4966431;28;20120;-71
2022/01/26 03:05:32;;;;;;;64.95;26.30;;;2.60;99.90;;;;;;4988172;28;20062;-71
2022/01/26 03:08:05;;;;;;;64.32;26.17;;;2.60;99.90;;;;;;5004768;28;20042;-71
2022/01/26 03:13:03;;;;;;;73.43;28.38;;;2.60;99.90;;;;;;4984143;28;20409;-71
2022/01/26 03:15:52;;;;;;;67.57;26.95;;;2.60;99.90;;;;;;4985425;28;20037;-71
2022/01/26 03:20:50;;;;;;;;;;;2.60;99.90;;;;;;4995361;28;20042;-72
2022/01/26 03:29:09;;;;;;;71.85;27.52;;;2.60;99.90;;;;;;4984345;28;20099;-71
2022/01/26 03:34:15;;;;;;;67.68;25.92;;;2.60;99.90;;;;;;4991186;28;20512;-71
2022/01/26 03:36:55;;;;;;;77.65;27.70;;;2.60;99.90;;;;;;4971545;28;20121;-71
2022/01/26 03:39:23;;;;;;;72.75;29.85;;;2.60;99.90;;;;;;5000919;28;20481;-72
2022/01/26 03:44:17;;;;;;;76.03;30.90;;;2.60;99.90;;;;;;4989204;28;20507;-71
2022/01/26 03:46:43;;;;;;;74.18;29.50;;;3.60;99.90;;;;;;4990017;28;20052;-71
2022/01/26 03:49:11;;;;;;;72.38;27.92;;;2.60;99.90;;;;;;4970442;28;20041;-71
2022/01/26 03:51:38;;;;;;;75.68;28.38;;;2.60;99.90;;;;;;4986850;28;20050;-71
2022/01/26 03:54:05;;;;;;;83.38;32.03;;;2.60;99.90;;;;;;4984150;28;20133;-71
2022/01/26 03:56:31;;;;;;;79.57;31.33;;;2.20;99.90;;;;;;5002270;28;20045;-72
2022/01/26 03:58:57;;;;;;;80.28;30.45;;;2.70;99.90;;;;;;5001756;28;20044;-72
2022/01/26 04:01:23;;;;;;;81.40;31.63;;;2.50;99.90;;;;;;4990449;28;20129;-72
2022/01/26 04:03:49;;;;;;;76.47;31.25;;;2.60;99.90;;;;;;4971235;28;20034;-72
2022/01/26 04:06:15;;;;;;;74.38;29.95;;;2.60;99.90;;;;;;4991343;28;20125;-72
2022/01/26 04:08:43;;;;;;;71.97;29.58;;;2.60;99.90;;;;;;4988771;28;20095;-71
2022/01/26 04:13:38;;;;;;;82.18;32.92;;;2.50;99.90;;;;;;4971129;28;20096;-71
2022/01/26 04:16:05;;;;;;;73.70;29.40;;;2.50;99.90;;;;;;4952237;28;20042;-71
2022/01/26 04:18:37;;;;;;;72.07;28.38;;;2.60;99.90;;;;;;4973121;28;20087;-71
2022/01/26 04:21:20;;;;;;;;;;;2.10;99.90;;;;;;4986821;28;20096;-71
2022/01/26 04:26:14;;;;;;;81.47;33.63;;;2.60;99.90;;;;;;4988023;28;20065;-71
2022/01/26 04:28:46;;;;;;;79.00;30.55;;;2.60;99.90;;;;;;4987057;28;20057;-71
2022/01/26 04:31:29;;;;;;;60.82;26.55;;;2.60;99.90;;;;;;1194700;28;10022718;-71
2022/01/26 04:33:55;;;;;;;78.15;30.30;;;2.50;99.90;;;;;;4117671;28;10001474;-71
2022/01/26 04:36:33;;;;;;;77.88;30.02;;;2.50;99.90;;;;;;4988172;28;20101;-71
2022/01/26 04:39:03;;;;;;;76.22;31.63;;;2.50;99.90;;;;;;4981143;28;20046;-71
2022/01/26 04:41:35;;;;;;;77.05;29.55;;;2.50;99.90;;;;;;4985107;28;20122;-71
2022/01/26 04:44:08;;;;;;;70.43;28.52;;;2.50;99.90;;;;;;4995272;28;20362;-71
2022/01/26 04:46:34;;;;;;;67.63;27.35;;;2.50;99.90;;;;;;5002983;28;20069;-71
2022/01/26 04:48:59;;;;;;;78.50;31.35;;;2.50;99.90;;;;;;4969920;28;20084;-72
2022/01/26 04:51:25;;;;;;;80.60;28.52;;;2.50;99.90;;;;;;5000233;28;20056;-72
2022/01/26 04:53:51;;;;;;;69.43;27.98;;;2.50;99.90;;;;;;4981118;28;20050;-72
2022/01/26 04:56:17;;;;;;;76.07;28.38;;;2.50;99.90;;;;;;4982255;28;20717;-72
2022/01/26 04:58:43;;;;;;;74.43;30.30;;;2.50;99.90;;;;;;4983585;28;20049;-72
2022/01/26 05:01:09;;;;;;;74.18;29.65;;;2.40;99.90;;;;;;5006951;28;20104;-72
2022/01/26 05:03:35;;;;;;;73.75;27.20;;;2.40;99.90;;;;;;4986482;28;20042;-72
2022/01/26 05:06:00;;;;;;;70.38;30.25;;;2.40;99.90;;;;;;4971645;28;20116;-71
2022/01/26 05:08:26;;;;;;;70.45;30.33;;;2.40;99.90;;;;;;4988369;28;20493;-71
2022/01/26 05:10:52;;;;;;;68.47;26.48;;;0.90;99.90;;;;;;4990390;28;20072;-71
2022/01/26 05:13:17;;;;;;;75.25;29.58;;;2.40;99.90;;;;;;4970629;28;20038;-71
2022/01/26 05:15:43;;;;;;;67.38;28.10;;;2.40;99.90;;;;;;4985825;28;20037;-70
2022/01/26 05:18:10;;;;;;;68.60;29.73;;;2.40;99.90;;;;;;4990425;28;20077;-72
2022/01/26 05:20:36;;;;;;;75.30;29.80;;;2.40;99.90;;;;;;4984504;28;20057;-71
2022/01/26 05:23:02;;;;;;;76.28;30.33;;;2.40;99.90;;;;;;4983239;28;20054;-71
2022/01/26 05:25:28;;;;;;;67.07;25.60;;;2.40;99.90;;;;;;5001547;28;20127;-71
2022/01/26 05:27:53;;;;;;;67.75;29.08;;;2.40;99.90;;;;;;4985530;28;20085;-71
2022/01/26 05:30:20;;;;;;;65.13;26.25;;;2.40;99.90;;;;;;4988696;28;20050;-71
2022/01/26 05:32:46;;;;;;;66.25;27.33;;;2.40;99.90;;;;;;4981946;28;20038;-71
2022/01/26 05:35:12;;;;;;;75.47;29.88;;;2.40;99.90;;;;;;4965890;28;20116;-71
2022/01/26 05:37:39;;;;;;;70.25;28.88;;;2.40;99.90;;;;;;4941981;28;20121;-71
2022/01/26 05:40:23;;;;;;;68.87;26.20;;;2.40;99.90;;;;;;2621362;28;10004042;-71
2022/01/26 05:42:49;;;;;;;68.30;26.90;;;2.40;99.90;;;;;;2753705;28;10001427;-71
2022/01/26 05:45:28;;;;;;;72.45;29.52;;;2.40;99.90;;;;;;4968825;28;20176;-71
2022/01/26 05:47:54;;;;;;;70.50;27.58;;;2.50;99.90;;;;;;4983409;28;20053;-71
2022/01/26 05:50:21;;;;;;;70.05;27.42;;;2.40;99.90;;;;;;4985235;28;20054;-72
2022/01/26 05:52:47;;;;;;;66.68;25.13;;;2.40;99.90;;;;;;4979155;28;20095;-72
2022/01/26 05:55:13;;;;;;;72.07;27.80;;;2.40;99.90;;;;;;4994499;28;20486;-72
2022/01/26 05:57:39;;;;;;;64.78;24.00;;;2.40;99.90;;;;;;4989638;28;20409;-72
2022/01/26 06:00:05;;;;;;;68.72;26.48;;;2.40;99.90;;;;;;4988522;28;20433;-72
2022/01/26 06:02:32;;;;;;;63.60;26.15;;;2.40;99.90;;;;;;4954747;28;20072;-72
2022/01/26 06:04:58;;;;;;;69.90;27.27;;;2.40;99.90;;;;;;4985194;28;20046;-71
2022/01/26 06:07:23;;;;;;;71.20;25.45;;;2.30;99.90;;;;;;4981807;28;20042;-72
2022/01/26 06:09:49;;;;;;;69.32;27.77;;;2.40;99.90;;;;;;4979277;28;20095;-72
2022/01/26 06:12:15;;;;;;;68.20;26.45;;;2.40;99.90;;;;;;4981998;28;20716;-72
2022/01/26 06:14:40;;;;;;;73.53;28.52;;;2.40;99.90;;;;;;4968494;28;20083;-71
2022/01/26 06:17:07;;;;;;;66.38;26.33;;;2.40;99.90;;;;;;4980053;28;20057;-71
2022/01/26 06:19:33;;;;;;;67.15;27.80;;;2.40;99.90;;;;;;4981814;28;20247;-71
2022/01/26 06:21:59;;;;;;;74.75;29.55;;;2.50;99.90;;;;;;4982642;28;20129;-71
2022/01/26 06:24:24;;;;;;;72.00;27.15;;;2.50;99.90;;;;;;4971560;28;20125;-71
2022/01/26 06:27:04;;;;;;;68.53;25.98;;;2.30;99.90;;;;;;2768421;28;10003424;-71
2022/01/26 06:29:31;;;;;;;61.78;26.55;;;2.30;99.90;;;;;;2067682;28;10001558;-71
2022/01/26 06:31:57;;;;;;;72.25;27.30;;;2.30;99.90;;;;;;5007929;28;20452;-71
2022/01/26 06:34:23;;;;;;;75.32;26.02;;;2.30;99.90;;;;;;5006788;28;20045;-71
2022/01/26 06:36:49;;;;;;;65.70;27.42;;;2.30;99.90;;;;;;4992467;28;20041;-71
2022/01/26 06:39:15;;;;;;;72.30;27.80;;;2.30;99.90;;;;;;4989201;28;20453;-71
2022/01/26 06:41:49;;;;;;;68.60;29.02;;;2.40;99.90;;;;;;4986929;28;20482;-71
2022/01/26 06:44:24;;;;;;;70.57;28.08;;;2.40;99.90;;;;;;4975367;28;20042;-72
2022/01/26 06:49:34;;;;;;;72.15;28.63;;;2.40;99.90;;;;;;4978483;28;20134;-72
2022/01/26 06:52:00;;;;;;;68.20;27.30;;;2.40;99.90;;;;;;4992807;28;20061;-72
2022/01/26 06:54:26;;;;;;;68.07;27.15;;;2.40;99.90;;;;;;4988010;28;20037;-72
2022/01/26 06:56:52;;;;;;;69.35;27.33;;;2.40;99.90;;;;;;4988078;28;20034;-72
2022/01/26 06:59:17;;;;;;;58.47;23.02;;;2.40;99.90;;;;;;4990850;28;20038;-72
2022/01/26 07:01:43;;;;;;;64.78;27.27;;;2.40;99.90;;;;;;4985429;28;20108;-72
2022/01/26 07:04:09;;;;;;;68.15;27.70;;;2.40;99.90;;;;;;4965177;28;20490;-72
2022/01/26 07:06:34;;;;;;;70.00;30.30;;;2.40;99.90;;;;;;5007378;28;20042;-72
2022/01/26 07:09:00;;;;;;;68.97;28.92;;;2.40;99.90;;;;;;4968688;28;20107;-72
2022/01/26 07:11:26;;;;;;;63.47;26.02;;;2.40;99.90;;;;;;4981729;28;20054;-71
2022/01/26 07:13:53;;;;;;;59.42;24.92;;;2.40;99.90;;;;;;4989130;28;20709;-71
2022/01/26 07:21:47;;;;;;;56.80;24.05;;;2.40;99.90;;;;;;4993394;28;20133;-70
2022/01/26 07:24:13;;;;;;;60.53;24.38;;;2.40;99.90;;;;;;4975291;28;20140;-71
2022/01/26 07:26:39;;;;;;;62.88;24.45;;;2.40;99.90;;;;;;4982646;28;20054;-71
2022/01/26 07:29:10;;;;;;;60.13;27.75;;;2.40;99.90;;;;;;4956899;28;20072;-71
2022/01/26 07:31:41;;;;;;;60.65;25.40;;;2.40;99.90;;;;;;4991326;28;20049;-71
2022/01/26 07:34:07;;;;;;;;;;;2.50;99.90;;;;;;4992752;28;20046;-72
2022/01/26 07:36:33;;;;;;;66.80;26.67;;;2.50;99.90;;;;;;4988459;28;20274;-72
2022/01/26 07:39:06;;;;;;;53.88;22.98;;;2.50;99.90;;;;;;4972832;28;20041;-71
2022/01/26 07:41:32;;;;;;;55.58;24.02;;;2.50;99.90;;;;;;4980564;28;20741;-71
2022/01/26 07:43:58;;;;;;;65.80;28.52;;;2.50;99.90;;;;;;4987172;28;20045;-72
2022/01/26 07:46:24;;;;;;;63.10;24.95;;;2.50;99.90;;;;;;4967141;28;20045;-71
2022/01/26 07:48:50;;;;;;;58.13;24.20;;;2.50;99.90;;;;;;4989319;28;20045;-72
2022/01/26 07:51:16;;;;;;;69.10;28.25;;;2.50;99.90;;;;;;4979842;28;20050;-71
2022/01/26 07:53:44;;;;;;;64.40;28.95;;;2.50;99.90;;;;;;5001734;28;20131;-71
2022/01/26 07:56:10;;;;;;;73.30;29.83;;;2.50;99.90;;;;;;4988661;28;20316;-71
2022/01/26 07:58:35;;;;;;;68.85;30.00;;;2.50;99.90;;;;;;4989115;28;20042;-71
2022/01/26 08:01:01;;;;;;;71.07;28.55;;;2.50;99.90;;;;;;4972626;28;20494;-71
2022/01/26 08:03:33;;;;;;;66.47;30.38;;;2.50;99.90;;;;;;5003887;28;20038;-70
2022/01/26 08:06:00;;;;;;;65.57;28.80;;;2.50;99.90;;;;;;4984528;28;20485;-70
2022/01/26 08:08:27;;;;;;;69.18;28.25;;;2.60;99.90;;;;;;4984153;28;20049;-71
2022/01/26 08:10:52;;;;;;;69.05;28.42;;;2.60;99.90;;;;;;4969618;28;20196;-71
2022/01/26 08:13:18;;;;;;;68.55;29.70;;;2.60;99.90;;;;;;4986389;28;20042;-71
2022/01/26 08:15:44;;;;;;;72.40;30.17;;;2.60;99.90;;;;;;4988416;28;20099;-70
2022/01/26 08:18:10;;;;;;;64.13;28.83;;;2.60;99.90;;;;;;4966104;28;21621;-71
2022/01/26 08:20:35;;;;;;;65.57;28.45;;;2.60;99.90;;;;;;5002716;28;20132;-71
2022/01/26 08:23:01;;;;;;;70.35;31.58;;;3.10;99.90;;;;;;4989830;28;20041;-70
2022/01/26 08:25:28;;;;;;;80.28;33.65;;;2.60;99.90;;;;;;4987840;28;20048;-71
2022/01/26 08:28:01;;;;;;;83.93;33.90;;;2.60;99.90;;;;;;4979631;28;20108;-71
2022/01/26 08:30:28;;;;;;;80.68;34.30;;;2.70;99.90;;;;;;4979574;28;20047;-70
2022/01/26 08:32:54;;;;;;;79.22;32.90;;;2.70;99.90;;;;;;4987484;28;20045;-71
2022/01/26 08:35:20;;;;;;;80.63;36.47;;;2.70;99.90;;;;;;5000062;28;20034;-69
2022/01/26 08:37:46;;;;;;;78.40;31.83;;;3.30;99.90;;;;;;4967831;28;20042;-70
2022/01/26 08:40:11;;;;;;;83.07;37.08;;;2.70;99.90;;;;;;4987118;28;20064;-70
2022/01/26 08:42:37;;;;;;;86.70;37.00;;;2.70;99.90;;;;;;4983582;28;20398;-71
2022/01/26 08:45:05;;;;;;;83.78;38.38;;;2.90;99.90;;;;;;4980566;28;20054;-71
2022/01/26 08:47:31;;;;;;;80.63;33.63;;;2.70;99.90;;;;;;4969414;28;20140;-71
2022/01/26 08:49:57;;;;;;;82.10;35.13;;;2.70;99.90;;;;;;4980911;28;20103;-71
2022/01/26 08:52:22;;;;;;;87.10;38.00;;;2.80;99.90;;;;;;4996602;28;20046;-70
2022/01/26 08:54:48;;;;;;;95.65;41.42;;;3.70;99.90;;;;;;4984733;28;20049;-71
2022/01/26 08:57:14;;;;;;;89.25;38.20;;;2.80;99.90;;;;;;4988577;28;20033;-70
2022/01/26 08:59:40;;;;;;;90.00;39.63;;;2.80;99.90;;;;;;4991528;28;20045;-70
2022/01/26 09:02:07;;;;;;;89.85;39.00;;;2.80;99.90;;;;;;5004748;28;20262;-71
2022/01/26 09:04:32;;;;;;;94.53;39.45;;;2.80;99.90;;;;;;4987241;28;20054;-71
2022/01/26 09:07:01;;;;;;;106.95;41.80;;;2.90;99.90;;;;;;4986261;28;20034;-71
2022/01/26 09:09:30;;;;;;;96.63;41.75;;;2.90;99.90;;;;;;5004427;28;20038;-70
2022/01/26 09:12:13;;;;;;;86.10;35.90;;;2.90;99.90;;;;;;2056342;28;10023863;-70
2022/01/26 09:14:40;;;;;;;92.35;39.90;;;2.90;99.90;;;;;;3439396;28;10001687;-70
2022/01/26 09:17:07;;;;;;;94.47;42.63;;;2.90;99.90;;;;;;5003035;28;20073;-69
2022/01/26 09:19:34;;;;;;;101.13;43.13;;;3.30;99.90;;;;;;4991925;28;20457;-71
2022/01/26 09:22:05;;;;;;;104.68;44.80;;;3.40;99.90;;;;;;4990582;28;20042;-71
2022/01/26 09:24:33;;;;;;;104.63;45.17;;;3.00;99.90;;;;;;4990304;28;20038;-71
2022/01/26 09:26:59;;;;;;;101.43;43.00;;;3.00;99.90;;;;;;5008058;28;20057;-71
2022/01/26 09:29:25;;;;;;;103.65;43.80;;;3.00;99.90;;;;;;4990525;28;20046;-70
2022/01/26 09:31:51;;;;;;;106.15;43.40;;;3.10;99.90;;;;;;4995337;28;20477;-71
2022/01/26 09:34:20;;;;;;;108.43;43.60;;;3.10;99.90;;;;;;4960570;28;20121;-71
2022/01/26 09:36:46;;;;;;;103.15;47.13;;;3.10;99.90;;;;;;5004750;28;20426;-71
2022/01/26 09:39:14;;;;;;;107.68;45.75;;;3.10;99.90;;;;;;4989459;28;20042;-72
2022/01/26 09:41:40;;;;;;;97.90;40.17;;;3.30;99.90;;;;;;4988363;28;20485;-71
2022/01/26 09:44:07;;;;;;;98.45;44.17;;;3.20;99.90;;;;;;4967764;28;20048;-72
2022/01/26 09:46:33;;;;;;;101.82;44.05;;;3.20;99.90;;;;;;4987880;28;20038;-71
2022/01/26 09:48:59;;;;;;;101.82;45.33;;;3.60;99.90;;;;;;4976713;28;20141;-71
2022/01/26 09:51:25;;;;;;;108.00;47.97;;;3.30;99.90;;;;;;4989976;28;20347;-72
2022/01/26 09:54:05;;;;;;;100.43;45.08;;;3.70;99.90;;;;;;4982176;28;20072;-72
2022/01/26 09:56:31;;;;;;;106.13;43.80;;;3.30;99.90;;;;;;4991958;28;20401;-73
2022/01/26 09:58:57;;;;;;;106.35;47.58;;;3.30;99.90;;;;;;5010246;28;20087;-73
2022/01/26 10:01:24;;;;;;;99.03;44.15;;;4.10;99.90;;;;;;4976506;28;20497;-73
2022/01/26 10:03:51;;;;;;;100.82;45.83;;;3.40;99.90;;;;;;5008819;28;20042;-73
2022/01/26 10:06:26;;;;;;;97.18;44.05;;;3.40;99.90;;;;;;4981722;28;20133;-73
2022/01/26 10:09:01;;;;;;;107.68;44.58;;;3.40;99.90;;;;;;4988819;28;20125;-73
2022/01/26 10:17:23;;;;;;;99.97;42.75;;;3.50;99.90;;;;;;4996628;28;20054;-73
2022/01/26 10:19:59;;;;;;;100.63;45.38;;;3.50;99.90;;;;;;4989173;28;20049;-73
2022/01/26 10:22:27;;;;;;;104.43;45.65;;;3.60;99.90;;;;;;5004383;28;20042;-73
2022/01/26 10:25:08;;;;;;;96.38;45.25;;;3.60;99.90;;;;;;5004840;28;20142;-73
2022/01/26 10:27:36;;;;;;;104.47;48.47;;;3.60;99.90;;;;;;4986516;28;20050;-73
2022/01/26 10:30:05;;;;;;;97.07;42.47;;;3.60;99.90;;;;;;4988766;28;20116;-73
2022/01/26 10:32:39;;;;;;;104.45;46.20;;;3.70;99.90;;;;;;4989891;28;20553;-72
2022/01/26 10:35:06;;;;;;;104.38;45.67;;;4.20;99.90;;;;;;4989214;28;20056;-72
2022/01/26 10:37:33;;;;;;;97.40;45.50;;;3.70;99.90;;;;;;4991442;28;20030;-71
2022/01/26 10:40:17;;;;;;;96.43;45.35;;;3.70;99.90;;;;;;4990768;28;20458;-71
2022/01/26 10:43:05;;;;;;;102.20;47.30;;;3.70;99.90;;;;;;5001989;28;20358;-72
2022/01/26 10:48:26;;;;;;;87.75;38.78;;;3.80;99.90;;;;;;4988466;28;20046;-72
2022/01/26 10:53:37;;;;;;;76.77;36.55;;;3.80;99.90;;;;;;178512;28;10023011;-71
2022/01/26 10:56:05;;;;;;;94.70;43.08;;;4.00;99.90;;;;;;4819337;28;5002951;-72
2022/01/26 10:58:32;;;;;;;89.35;42.85;;;3.90;99.90;;;;;;4995286;28;20176;-72
2022/01/26 11:00:58;;;;;;;104.57;43.22;;;3.90;99.90;;;;;;5002418;28;20038;-72
2022/01/26 11:03:23;;;;;;;95.68;40.78;;;3.90;99.90;;;;;;4975523;28;20239;-72
2022/01/26 11:05:50;;;;;;;87.70;39.75;;;3.90;99.90;;;;;;4993590;28;20083;-72
2022/01/26 11:08:17;;;;;;;99.13;43.78;;;3.90;99.90;;;;;;4986325;28;20069;-72
2022/01/26 11:10:45;;;;;;;86.30;39.63;;;4.00;99.90;;;;;;5010712;28;20092;-72
2022/01/26 11:13:22;;;;;;;84.75;38.83;;;4.00;99.90;;;;;;4994104;28;20050;-72
2022/01/26 11:15:48;;;;;;;88.80;41.47;;;4.00;99.90;;;;;;4996604;28;20034;-72
2022/01/26 11:18:21;;;;;;;89.90;41.08;;;4.00;99.90;;;;;;4992542;28;20053;-72
2022/01/26 11:20:50;;;;;;;96.13;41.35;;;4.00;99.90;;;;;;4971193;28;20312;-73
2022/01/26 11:23:32;;;;;;;91.18;42.42;;;4.00;99.90;;;;;;4988640;28;20048;-71
2022/01/26 11:25:58;;;;;;;91.60;40.97;;;4.00;99.90;;;;;;4984534;28;20081;-71
2022/01/26 11:28:26;;;;;;;90.00;41.35;;;4.00;99.90;;;;;;4988587;28;20446;-72
2022/01/26 11:30:57;;;;;;;86.93;40.53;;;4.00;99.90;;;;;;4975054;28;20444;-72
2022/01/26 11:33:26;;;;;;;86.30;37.40;;;4.00;99.90;;;;;;4987374;28;20132;-72
2022/01/26 11:35:54;;;;;;;88.00;40.35;;;4.00;99.90;;;;;;4988569;28;20045;-73
2022/01/26 11:47:30;;;;;;;88.35;38.95;;;4.20;99.90;;;;;;4926011;29;20051;-72
2022/01/26 11:50:15;;;;;;;91.72;38.80;;;4.20;99.90;;;;;;4930308;28;20039;-71
2022/01/26 11:52:45;;;;;;;87.40;36.35;;;4.30;99.90;;;;;;4927480;29;20076;-71
2022/01/26 11:55:25;;;;;;;83.93;38.15;;;4.30;99.90;;;;;;4929780;28;20054;-72
2022/01/26 11:58:19;;;;;;;68.17;31.55;;;4.60;99.90;;;;;;453940;29;10022889;-72
2022/01/26 12:00:56;;;;;;;92.82;38.92;;;5.50;99.90;;;;;;4816364;28;5002018;-72
2022/01/26 12:03:31;;;;;;;84.03;34.92;;;4.30;99.90;;;;;;4984602;28;20522;-72
2022/01/26 12:05:59;;;;;;;84.55;38.42;;;4.40;99.90;;;;;;4987862;28;20044;-72
2022/01/26 12:08:36;;;;;;;78.88;35.88;;;4.40;99.90;;;;;;4986754;28;20034;-72
2022/01/26 12:11:04;;;;;;;76.28;35.22;;;4.90;99.90;;;;;;4989826;28;20157;-72
2022/01/26 12:13:31;;;;;;;82.80;36.10;;;5.00;99.90;;;;;;4988855;28;20148;-71
2022/01/26 12:16:10;;;;;;;78.07;37.47;;;4.30;99.90;;;;;;5004876;28;20120;-72
2022/01/26 12:43:34;;;;;;;74.75;32.35;;;4.50;99.90;;;;;;4988945;28;20052;-72
2022/01/26 12:46:00;;;;;;;73.05;31.05;;;4.40;99.90;;;;;;4994400;28;20045;-72
2022/01/26 12:48:27;;;;;;;79.22;33.13;;;4.40;99.90;;;;;;4993862;28;20096;-72
2022/01/26 12:50:54;;;;;;;67.85;32.47;;;4.40;99.90;;;;;;4977576;28;20139;-72
2022/01/26 12:53:28;;;;;;;72.45;31.15;;;4.40;99.90;;;;;;4988291;28;20050;-72
2022/01/26 12:55:57;;;;;;;81.53;34.15;;;4.80;99.90;;;;;;4991115;28;20041;-72
2022/01/26 12:58:36;;;;;;;74.60;33.70;;;4.40;99.90;;;;;;4999233;28;20045;-72
2022/01/26 13:01:10;;;;;;;76.25;32.10;;;4.40;99.90;;;;;;5007412;28;20038;-72
2022/01/26 13:03:39;;;;;;;76.78;33.58;;;4.40;99.90;;;;;;4988950;28;20128;-72
2022/01/26 13:06:23;;;;;;;82.03;35.63;;;4.40;99.90;;;;;;5005518;28;20089;-71
2022/01/26 13:08:54;;;;;;;67.63;30.95;;;4.30;99.90;;;;;;4989011;28;20418;-71
2022/01/26 13:11:29;;;;;;;79.10;34.60;;;4.30;99.90;;;;;;4986235;28;20041;-71
2022/01/26 13:14:23;;;;;;;84.15;35.80;;;4.30;99.90;;;;;;4996721;28;20453;-72
2022/01/26 13:17:40;;;;;;;72.55;31.65;;;4.30;99.90;;;;;;4992484;28;20042;-72
2022/01/26 13:31:23;;;;;;;84.80;35.20;;;4.40;99.90;;;;;;4993826;28;20130;-72
2022/01/26 13:42:10;;;;;;;77.00;32.70;;;4.40;99.90;;;;;;5008329;28;20559;-72
2022/01/26 13:49:58;;;;;;;75.07;35.17;;;4.50;99.90;;;;;;4985980;28;20050;-71
2022/01/26 13:59:54;;;;;;;69.00;31.80;;;4.50;99.90;;;;;;4990839;28;20042;-72
2022/01/26 14:02:20;;;;;;;63.60;28.02;;;4.50;99.90;;;;;;4987045;28;20038;-71
2022/01/26 14:04:46;;;;;;;71.03;31.55;;;4.50;99.90;;;;;;4990427;28;20034;-71
2022/01/26 14:07:27;;;;;;;62.38;25.95;;;4.50;99.90;;;;;;2851016;28;10003329;-72
2022/01/26 14:09:53;;;;;;;58.70;27.52;;;4.50;99.90;;;;;;2399619;28;10001448;-73
2022/01/26 14:12:24;;;;;;;68.00;30.33;;;4.50;99.90;;;;;;4971814;28;20045;-72
2022/01/26 14:14:54;;;;;;;67.97;28.58;;;4.80;99.90;;;;;;4984274;28;20069;-72
2022/01/26 14:17:29;;;;;;;63.53;28.42;;;4.60;99.90;;;;;;4986687;28;20038;-72
2022/01/26 14:23:01;;;;;;;62.45;29.58;;;4.60;99.90;;;;;;5003541;28;20077;-72
2022/01/26 14:25:28;;;;;;;56.00;26.92;;;4.60;99.90;;;;;;4985697;28;20050;-71
2022/01/26 14:27:58;;;;;;;58.38;26.80;;;4.60;99.90;;;;;;5003861;28;20073;-72
2022/01/26 14:55:00;;;;;;;59.58;27.08;;;4.70;99.90;;;;;;5006194;28;20046;-72
2022/01/26 15:35:21;;;;;;;;;;;4.70;99.90;;;;;;5003446;28;20054;-72
2022/01/26 15:40:47;;;;;;;61.58;29.05;;;4.70;99.90;;;;;;4988135;28;20038;-72
2022/01/26 15:51:05;;;;;;;60.30;27.30;;;4.80;99.90;;;;;;4988884;28;20121;-71
2022/01/26 15:59:06;;;;;;;59.72;28.70;;;4.80;99.90;;;;;;5003591;28;20038;-71
2022/01/26 18:39:24;;;;;;;47.63;24.48;;;5.10;99.90;;;;;;4985297;28;21309;-72
2022/01/26 18:49:12;;;;;;;51.65;25.60;;;5.70;99.90;;;;;;4976903;28;20046;-73
2022/01/26 18:50:04;;;;;;;48.85;23.73;;;5.30;99.90;;;;;;4986999;28;20140;-73
2022/01/26 18:52:32;;;;;;;51.17;26.30;;;5.30;99.90;;;;;;4986766;28;20155;-73
2022/01/26 18:55:12;;;;;;;46.38;25.33;;;5.80;99.90;;;;;;2648911;28;10002505;-72
2022/01/26 18:57:37;;;;;;;49.15;23.92;;;5.70;99.90;;;;;;2751563;28;10001157;-73
2022/01/26 19:00:04;;;;;;;46.90;21.48;;;4.50;99.90;;;;;;4958349;28;20124;-73
2022/01/26 19:02:30;;;;;;;44.50;23.25;;;5.40;99.90;;;;;;4989109;28;20042;-73
2022/01/26 19:04:55;;;;;;;45.22;23.25;;;5.40;99.90;;;;;;4983485;28;20559;-73
2022/01/26 19:07:22;;;;;;;44.92;21.45;;;;;;;;;;4986974;28;20061;-73
2022/01/26 19:09:51;;;;;;;35.08;17.50;;;;;;;;;;5000097;28;20385;-73
2022/01/26 19:12:18;;;;;;;36.55;19.45;;;;;;;;;;4983663;28;20378;-73
2022/01/26 19:14:54;;;;;;;45.67;21.40;;;5.60;99.90;;;;;;4988736;28;20042;-73
2022/01/26 19:17:45;;;;;;;45.53;23.95;;;5.40;99.90;;;;;;4990600;28;20069;-73
2022/01/26 19:25:38;;;;;;;40.35;18.33;;;5.80;99.90;;;;;;4959053;28;20038;-73
2022/01/26 19:28:14;;;;;;;42.25;21.80;;;5.70;99.90;;;;;;4983562;28;20058;-73
2022/01/26 19:44:34;;;;;;;37.17;20.20;;;6.30;99.90;;;;;;4971342;28;20046;-73
2022/01/26 19:52:12;;;;;;;39.40;19.98;;;;;;;;;;4992393;28;19940;-72
2022/01/26 19:54:40;;;;;;;43.60;20.25;;;7.00;99.90;;;;;;4987244;28;20204;-72
2022/01/26 19:57:10;;;;;;;42.00;18.85;;;6.10;99.90;;;;;;4998882;28;20046;-71
2022/01/26 19:59:37;;;;;;;34.22;15.73;;;5.80;99.90;;;;;;4988143;28;20034;-72
2022/01/26 20:02:04;;;;;;;38.65;19.42;;;5.80;99.90;;;;;;5005406;28;20277;-72
2022/01/26 20:04:31;;;;;;;34.78;17.90;;;5.80;99.90;;;;;;4984980;28;21270;-71
2022/01/26 20:07:02;;;;;;;41.22;20.33;;;5.90;99.90;;;;;;4973383;28;20149;-71
2022/01/26 20:09:34;;;;;;;36.55;17.45;;;5.90;99.90;;;;;;4991432;28;20401;-71